sensor_id;sensor_type;location;lat;lon;timestamp;P1;durP1;ratioP1;P2;durP2;ratioP2
38083;SDS011;23894;51.466;7.444;2023-04-09T00:01:50;43.43;;;33.20;;
38083;SDS011;23894;51.466;7.444;2023-04-09T00:03:53;44.30;;;34.63;;
38083;SDS011;23894;51.466;7.444;2023-04-09T00:05:55;43.95;;;34.75;;
38083;SDS011;23894;51.466;7.444;2023-04-09T00:07:59;42.40;;;33.53;;
38083;SDS011;23894;51.466;7.444;2023-04-09T00:10:04;43.10;;;33.17;;
38083;SDS011;23894;51.466;7.444;2023-04-09T00:12:06;39.87;;;30.50;;
38083;SDS011;23894;51.466;7.444;2023-04-09T00:14:09;34.60;;;27.50;;
38083;SDS011;23894;51.466;7.444;2023-04-09T00:16:13;34.87;;;27.20;;
38083;SDS011;23894;51.466;7.444;2023-04-09T00:18:16;35.30;;;27.33;;
38083;SDS011;23894;51.466;7.444;2023-04-09T00:20:19;39.80;;;31.38;;
38083;SDS011;23894;51.466;7.444;2023-04-09T00:22:22;34.38;;;28.15;;
38083;SDS011;23894;51.466;7.444;2023-04-09T00:24:25;35.40;;;28.05;;
38083;SDS011;23894;51.466;7.444;2023-04-09T00:26:27;33.15;;;26.27;;
38083;SDS011;23894;51.466;7.444;2023-04-09T00:28:30;38.97;;;30.13;;
38083;SDS011;23894;51.466;7.444;2023-04-09T00:30:33;40.80;;;32.05;;
38083;SDS011;23894;51.466;7.444;2023-04-09T00:32:35;36.15;;;28.65;;
38083;SDS011;23894;51.466;7.444;2023-04-09T00:34:38;38.55;;;29.67;;
38083;SDS011;23894;51.466;7.444;2023-04-09T00:36:42;33.50;;;27.67;;
38083;SDS011;23894;51.466;7.444;2023-04-09T00:38:45;35.85;;;27.83;;
38083;SDS011;23894;51.466;7.444;2023-04-09T00:40:50;36.38;;;28.65;;
38083;SDS011;23894;51.466;7.444;2023-04-09T00:42:54;39.25;;;30.38;;
38083;SDS011;23894;51.466;7.444;2023-04-09T00:45:18;38.47;;;30.55;;
38083;SDS011;23894;51.466;7.444;2023-04-09T00:47:19;40.10;;;30.95;;
38083;SDS011;23894;51.466;7.444;2023-04-09T00:49:23;40.63;;;31.33;;
38083;SDS011;23894;51.466;7.444;2023-04-09T00:51:26;39.65;;;30.92;;
38083;SDS011;23894;51.466;7.444;2023-04-09T00:53:27;42.35;;;32.25;;
38083;SDS011;23894;51.466;7.444;2023-04-09T00:55:30;41.17;;;31.83;;
38083;SDS011;23894;51.466;7.444;2023-04-09T00:57:32;43.08;;;32.30;;
38083;SDS011;23894;51.466;7.444;2023-04-09T00:59:34;37.88;;;29.02;;
38083;SDS011;23894;51.466;7.444;2023-04-09T01:01:36;36.45;;;29.25;;
38083;SDS011;23894;51.466;7.444;2023-04-09T01:03:37;32.70;;;25.83;;
38083;SDS011;23894;51.466;7.444;2023-04-09T01:05:45;32.38;;;26.52;;
38083;SDS011;23894;51.466;7.444;2023-04-09T01:08:14;32.20;;;25.48;;
38083;SDS011;23894;51.466;7.444;2023-04-09T01:10:39;34.17;;;27.60;;
38083;SDS011;23894;51.466;7.444;2023-04-09T01:15:05;35.60;;;26.70;;
38083;SDS011;23894;51.466;7.444;2023-04-09T01:17:23;34.55;;;27.10;;
38083;SDS011;23894;51.466;7.444;2023-04-09T01:21:31;35.05;;;26.88;;
38083;SDS011;23894;51.466;7.444;2023-04-09T01:26:03;34.35;;;27.35;;
38083;SDS011;23894;51.466;7.444;2023-04-09T01:28:15;36.40;;;28.48;;
38083;SDS011;23894;51.466;7.444;2023-04-09T01:30:16;38.13;;;29.23;;
38083;SDS011;23894;51.466;7.444;2023-04-09T01:32:19;35.53;;;28.42;;
38083;SDS011;23894;51.466;7.444;2023-04-09T01:34:23;36.20;;;28.70;;
38083;SDS011;23894;51.466;7.444;2023-04-09T01:36:27;36.55;;;29.17;;
38083;SDS011;23894;51.466;7.444;2023-04-09T01:38:38;32.63;;;26.60;;
38083;SDS011;23894;51.466;7.444;2023-04-09T01:40:42;29.17;;;24.00;;
38083;SDS011;23894;51.466;7.444;2023-04-09T01:42:43;34.53;;;27.15;;
38083;SDS011;23894;51.466;7.444;2023-04-09T01:44:48;33.55;;;25.42;;
38083;SDS011;23894;51.466;7.444;2023-04-09T01:46:51;36.50;;;28.20;;
38083;SDS011;23894;51.466;7.444;2023-04-09T01:48:58;35.13;;;28.08;;
38083;SDS011;23894;51.466;7.444;2023-04-09T01:51:02;35.03;;;27.13;;
38083;SDS011;23894;51.466;7.444;2023-04-09T01:53:06;36.58;;;27.73;;
38083;SDS011;23894;51.466;7.444;2023-04-09T01:55:07;39.10;;;30.95;;
38083;SDS011;23894;51.466;7.444;2023-04-09T01:57:10;43.83;;;32.95;;
38083;SDS011;23894;51.466;7.444;2023-04-09T01:59:14;44.17;;;34.20;;
38083;SDS011;23894;51.466;7.444;2023-04-09T02:04:08;45.35;;;34.47;;
38083;SDS011;23894;51.466;7.444;2023-04-09T02:06:15;45.50;;;35.22;;
38083;SDS011;23894;51.466;7.444;2023-04-09T02:08:18;44.13;;;34.13;;
38083;SDS011;23894;51.466;7.444;2023-04-09T02:10:23;44.47;;;34.15;;
38083;SDS011;23894;51.466;7.444;2023-04-09T02:12:26;48.83;;;36.38;;
38083;SDS011;23894;51.466;7.444;2023-04-09T02:14:32;46.90;;;35.92;;
38083;SDS011;23894;51.466;7.444;2023-04-09T02:16:36;43.03;;;34.80;;
38083;SDS011;23894;51.466;7.444;2023-04-09T02:18:38;46.88;;;36.33;;
38083;SDS011;23894;51.466;7.444;2023-04-09T02:20:40;45.60;;;35.97;;
38083;SDS011;23894;51.466;7.444;2023-04-09T02:22:44;44.97;;;35.97;;
38083;SDS011;23894;51.466;7.444;2023-04-09T02:24:49;46.10;;;36.28;;
38083;SDS011;23894;51.466;7.444;2023-04-09T02:27:11;48.30;;;38.90;;
38083;SDS011;23894;51.466;7.444;2023-04-09T02:29:14;45.53;;;35.20;;
38083;SDS011;23894;51.466;7.444;2023-04-09T02:31:15;47.00;;;35.10;;
38083;SDS011;23894;51.466;7.444;2023-04-09T02:33:17;41.33;;;33.20;;
38083;SDS011;23894;51.466;7.444;2023-04-09T02:35:19;40.70;;;32.03;;
38083;SDS011;23894;51.466;7.444;2023-04-09T02:37:20;44.10;;;33.75;;
38083;SDS011;23894;51.466;7.444;2023-04-09T02:39:24;49.83;;;37.30;;
38083;SDS011;23894;51.466;7.444;2023-04-09T02:41:27;44.47;;;36.13;;
38083;SDS011;23894;51.466;7.444;2023-04-09T02:43:30;48.72;;;37.30;;
38083;SDS011;23894;51.466;7.444;2023-04-09T02:45:33;49.20;;;37.30;;
38083;SDS011;23894;51.466;7.444;2023-04-09T02:47:35;44.88;;;35.75;;
38083;SDS011;23894;51.466;7.444;2023-04-09T02:49:36;46.53;;;36.45;;
38083;SDS011;23894;51.466;7.444;2023-04-09T02:51:37;48.67;;;37.42;;
38083;SDS011;23894;51.466;7.444;2023-04-09T02:53:38;47.65;;;37.03;;
38083;SDS011;23894;51.466;7.444;2023-04-09T02:55:41;49.08;;;37.33;;
38083;SDS011;23894;51.466;7.444;2023-04-09T02:57:46;46.97;;;37.67;;
38083;SDS011;23894;51.466;7.444;2023-04-09T02:59:49;45.97;;;36.35;;
38083;SDS011;23894;51.466;7.444;2023-04-09T03:01:53;43.50;;;34.88;;
38083;SDS011;23894;51.466;7.444;2023-04-09T03:03:54;46.03;;;35.72;;
38083;SDS011;23894;51.466;7.444;2023-04-09T03:05:56;43.63;;;34.42;;
38083;SDS011;23894;51.466;7.444;2023-04-09T03:07:57;47.72;;;35.95;;
38083;SDS011;23894;51.466;7.444;2023-04-09T03:09:58;44.72;;;34.75;;
38083;SDS011;23894;51.466;7.444;2023-04-09T03:12:01;50.07;;;37.10;;
38083;SDS011;23894;51.466;7.444;2023-04-09T03:14:04;48.90;;;37.83;;
38083;SDS011;23894;51.466;7.444;2023-04-09T03:16:08;44.58;;;34.33;;
38083;SDS011;23894;51.466;7.444;2023-04-09T03:18:10;45.33;;;35.50;;
38083;SDS011;23894;51.466;7.444;2023-04-09T03:20:13;47.83;;;37.38;;
38083;SDS011;23894;51.466;7.444;2023-04-09T03:22:14;49.70;;;37.80;;
38083;SDS011;23894;51.466;7.444;2023-04-09T03:24:16;44.20;;;35.28;;
38083;SDS011;23894;51.466;7.444;2023-04-09T03:26:17;46.45;;;36.55;;
38083;SDS011;23894;51.466;7.444;2023-04-09T03:28:20;47.92;;;37.97;;
38083;SDS011;23894;51.466;7.444;2023-04-09T03:30:22;49.25;;;38.20;;
38083;SDS011;23894;51.466;7.444;2023-04-09T03:32:24;48.22;;;37.67;;
38083;SDS011;23894;51.466;7.444;2023-04-09T03:34:27;45.05;;;34.85;;
38083;SDS011;23894;51.466;7.444;2023-04-09T03:36:38;48.25;;;36.97;;
38083;SDS011;23894;51.466;7.444;2023-04-09T03:38:40;44.80;;;34.93;;
38083;SDS011;23894;51.466;7.444;2023-04-09T03:40:44;43.33;;;34.50;;
38083;SDS011;23894;51.466;7.444;2023-04-09T03:42:47;43.05;;;34.17;;
38083;SDS011;23894;51.466;7.444;2023-04-09T03:44:48;40.93;;;33.13;;
38083;SDS011;23894;51.466;7.444;2023-04-09T03:46:51;45.10;;;35.17;;
38083;SDS011;23894;51.466;7.444;2023-04-09T03:48:55;50.45;;;39.83;;
38083;SDS011;23894;51.466;7.444;2023-04-09T03:50:59;48.85;;;36.28;;
38083;SDS011;23894;51.466;7.444;2023-04-09T03:53:02;42.63;;;33.53;;
38083;SDS011;23894;51.466;7.444;2023-04-09T03:55:04;40.13;;;31.90;;
38083;SDS011;23894;51.466;7.444;2023-04-09T03:57:06;44.22;;;34.92;;
38083;SDS011;23894;51.466;7.444;2023-04-09T03:59:08;44.47;;;33.90;;
38083;SDS011;23894;51.466;7.444;2023-04-09T04:01:10;42.63;;;32.63;;
38083;SDS011;23894;51.466;7.444;2023-04-09T04:03:13;42.83;;;33.25;;
38083;SDS011;23894;51.466;7.444;2023-04-09T04:05:15;46.65;;;34.65;;
38083;SDS011;23894;51.466;7.444;2023-04-09T04:07:18;44.22;;;34.92;;
38083;SDS011;23894;51.466;7.444;2023-04-09T04:09:22;44.40;;;33.50;;
38083;SDS011;23894;51.466;7.444;2023-04-09T04:11:25;40.85;;;33.40;;
38083;SDS011;23894;51.466;7.444;2023-04-09T04:13:29;44.40;;;33.55;;
38083;SDS011;23894;51.466;7.444;2023-04-09T04:15:40;44.17;;;33.97;;
38083;SDS011;23894;51.466;7.444;2023-04-09T04:17:44;44.88;;;34.08;;
38083;SDS011;23894;51.466;7.444;2023-04-09T04:19:46;40.40;;;32.42;;
38083;SDS011;23894;51.466;7.444;2023-04-09T04:21:47;44.90;;;33.55;;
38083;SDS011;23894;51.466;7.444;2023-04-09T04:23:49;42.33;;;32.88;;
38083;SDS011;23894;51.466;7.444;2023-04-09T04:25:52;39.03;;;32.25;;
38083;SDS011;23894;51.466;7.444;2023-04-09T04:27:57;42.63;;;33.60;;
38083;SDS011;23894;51.466;7.444;2023-04-09T04:29:58;38.53;;;31.20;;
38083;SDS011;23894;51.466;7.444;2023-04-09T04:32:01;42.30;;;31.80;;
38083;SDS011;23894;51.466;7.444;2023-04-09T04:34:04;40.85;;;32.72;;
38083;SDS011;23894;51.466;7.444;2023-04-09T04:36:08;40.30;;;31.42;;
38083;SDS011;23894;51.466;7.444;2023-04-09T04:38:11;40.55;;;31.50;;
38083;SDS011;23894;51.466;7.444;2023-04-09T04:40:15;38.88;;;32.20;;
38083;SDS011;23894;51.466;7.444;2023-04-09T04:42:16;42.95;;;33.15;;
38083;SDS011;23894;51.466;7.444;2023-04-09T04:44:18;42.67;;;33.20;;
38083;SDS011;23894;51.466;7.444;2023-04-09T04:46:19;41.22;;;32.28;;
38083;SDS011;23894;51.466;7.444;2023-04-09T04:48:22;39.30;;;31.92;;
38083;SDS011;23894;51.466;7.444;2023-04-09T04:50:24;40.80;;;31.93;;
38083;SDS011;23894;51.466;7.444;2023-04-09T04:52:26;43.15;;;32.50;;
38083;SDS011;23894;51.466;7.444;2023-04-09T04:54:29;39.38;;;31.00;;
38083;SDS011;23894;51.466;7.444;2023-04-09T04:56:31;41.95;;;32.45;;
38083;SDS011;23894;51.466;7.444;2023-04-09T04:58:33;39.50;;;30.58;;
38083;SDS011;23894;51.466;7.444;2023-04-09T05:00:37;40.50;;;31.80;;
38083;SDS011;23894;51.466;7.444;2023-04-09T05:02:39;40.47;;;31.70;;
38083;SDS011;23894;51.466;7.444;2023-04-09T05:04:40;39.13;;;30.92;;
38083;SDS011;23894;51.466;7.444;2023-04-09T05:06:44;37.20;;;29.83;;
38083;SDS011;23894;51.466;7.444;2023-04-09T05:08:46;35.63;;;28.98;;
38083;SDS011;23894;51.466;7.444;2023-04-09T05:10:48;35.25;;;28.98;;
38083;SDS011;23894;51.466;7.444;2023-04-09T05:12:51;33.92;;;27.85;;
38083;SDS011;23894;51.466;7.444;2023-04-09T05:14:54;35.70;;;28.25;;
38083;SDS011;23894;51.466;7.444;2023-04-09T05:16:58;32.43;;;27.53;;
38083;SDS011;23894;51.466;7.444;2023-04-09T05:19:01;33.35;;;27.67;;
38083;SDS011;23894;51.466;7.444;2023-04-09T05:21:04;31.45;;;26.98;;
38083;SDS011;23894;51.466;7.444;2023-04-09T05:23:07;34.15;;;27.30;;
38083;SDS011;23894;51.466;7.444;2023-04-09T05:25:13;32.65;;;26.73;;
38083;SDS011;23894;51.466;7.444;2023-04-09T05:27:15;33.63;;;26.13;;
38083;SDS011;23894;51.466;7.444;2023-04-09T05:29:18;32.72;;;26.40;;
38083;SDS011;23894;51.466;7.444;2023-04-09T05:31:20;32.25;;;26.63;;
38083;SDS011;23894;51.466;7.444;2023-04-09T05:33:21;31.98;;;26.52;;
38083;SDS011;23894;51.466;7.444;2023-04-09T05:35:25;31.75;;;25.77;;
38083;SDS011;23894;51.466;7.444;2023-04-09T05:37:28;31.08;;;26.70;;
38083;SDS011;23894;51.466;7.444;2023-04-09T05:39:31;31.98;;;27.15;;
38083;SDS011;23894;51.466;7.444;2023-04-09T05:41:33;30.73;;;25.85;;
38083;SDS011;23894;51.466;7.444;2023-04-09T05:43:36;32.30;;;27.17;;
38083;SDS011;23894;51.466;7.444;2023-04-09T05:45:40;34.08;;;28.55;;
38083;SDS011;23894;51.466;7.444;2023-04-09T05:47:44;34.50;;;28.42;;
38083;SDS011;23894;51.466;7.444;2023-04-09T05:49:47;31.38;;;26.63;;
38083;SDS011;23894;51.466;7.444;2023-04-09T05:51:51;33.28;;;27.73;;
38083;SDS011;23894;51.466;7.444;2023-04-09T05:53:52;36.03;;;29.55;;
38083;SDS011;23894;51.466;7.444;2023-04-09T05:55:55;35.95;;;29.70;;
38083;SDS011;23894;51.466;7.444;2023-04-09T05:57:57;35.20;;;29.05;;
38083;SDS011;23894;51.466;7.444;2023-04-09T06:00:00;38.30;;;29.90;;
38083;SDS011;23894;51.466;7.444;2023-04-09T06:02:02;33.78;;;27.95;;
38083;SDS011;23894;51.466;7.444;2023-04-09T06:04:04;31.30;;;27.73;;
38083;SDS011;23894;51.466;7.444;2023-04-09T06:06:09;37.03;;;29.75;;
38083;SDS011;23894;51.466;7.444;2023-04-09T06:08:12;32.33;;;27.30;;
38083;SDS011;23894;51.466;7.444;2023-04-09T06:10:15;32.15;;;26.88;;
38083;SDS011;23894;51.466;7.444;2023-04-09T06:12:16;32.10;;;26.48;;
38083;SDS011;23894;51.466;7.444;2023-04-09T06:14:17;31.00;;;25.02;;
38083;SDS011;23894;51.466;7.444;2023-04-09T06:16:19;31.70;;;25.75;;
38083;SDS011;23894;51.466;7.444;2023-04-09T06:18:22;30.30;;;25.23;;
38083;SDS011;23894;51.466;7.444;2023-04-09T06:20:25;28.80;;;25.70;;
38083;SDS011;23894;51.466;7.444;2023-04-09T06:22:28;32.67;;;27.27;;
38083;SDS011;23894;51.466;7.444;2023-04-09T06:24:31;31.25;;;27.15;;
38083;SDS011;23894;51.466;7.444;2023-04-09T06:26:34;33.13;;;27.10;;
38083;SDS011;23894;51.466;7.444;2023-04-09T06:28:36;29.85;;;26.02;;
38083;SDS011;23894;51.466;7.444;2023-04-09T06:30:40;32.20;;;26.48;;
38083;SDS011;23894;51.466;7.444;2023-04-09T06:32:43;29.63;;;26.30;;
38083;SDS011;23894;51.466;7.444;2023-04-09T06:34:47;30.98;;;26.75;;
38083;SDS011;23894;51.466;7.444;2023-04-09T06:36:51;30.02;;;26.27;;
38083;SDS011;23894;51.466;7.444;2023-04-09T06:38:55;31.33;;;26.35;;
38083;SDS011;23894;51.466;7.444;2023-04-09T06:40:58;33.60;;;29.90;;
38083;SDS011;23894;51.466;7.444;2023-04-09T06:43:01;35.45;;;29.63;;
38083;SDS011;23894;51.466;7.444;2023-04-09T06:45:05;33.92;;;28.85;;
38083;SDS011;23894;51.466;7.444;2023-04-09T06:47:08;33.13;;;29.48;;
38083;SDS011;23894;51.466;7.444;2023-04-09T06:49:11;33.43;;;28.33;;
38083;SDS011;23894;51.466;7.444;2023-04-09T06:51:14;31.48;;;27.00;;
38083;SDS011;23894;51.466;7.444;2023-04-09T06:53:15;30.80;;;26.77;;
38083;SDS011;23894;51.466;7.444;2023-04-09T06:55:17;31.17;;;27.23;;
38083;SDS011;23894;51.466;7.444;2023-04-09T06:57:21;30.35;;;27.05;;
38083;SDS011;23894;51.466;7.444;2023-04-09T06:59:24;33.30;;;27.05;;
38083;SDS011;23894;51.466;7.444;2023-04-09T07:01:26;31.35;;;27.38;;
38083;SDS011;23894;51.466;7.444;2023-04-09T07:03:33;32.22;;;27.08;;
38083;SDS011;23894;51.466;7.444;2023-04-09T07:05:36;30.40;;;24.98;;
38083;SDS011;23894;51.466;7.444;2023-04-09T07:07:48;29.98;;;24.95;;
38083;SDS011;23894;51.466;7.444;2023-04-09T07:09:51;29.83;;;24.98;;
38083;SDS011;23894;51.466;7.444;2023-04-09T07:11:55;30.02;;;24.10;;
38083;SDS011;23894;51.466;7.444;2023-04-09T07:14:17;30.83;;;25.77;;
38083;SDS011;23894;51.466;7.444;2023-04-09T07:16:21;28.25;;;24.77;;
38083;SDS011;23894;51.466;7.444;2023-04-09T07:18:24;31.15;;;24.83;;
38083;SDS011;23894;51.466;7.444;2023-04-09T07:20:28;29.85;;;23.85;;
38083;SDS011;23894;51.466;7.444;2023-04-09T07:22:30;27.40;;;21.65;;
38083;SDS011;23894;51.466;7.444;2023-04-09T07:24:34;30.80;;;23.08;;
38083;SDS011;23894;51.466;7.444;2023-04-09T07:26:38;29.75;;;23.55;;
38083;SDS011;23894;51.466;7.444;2023-04-09T07:28:40;27.88;;;22.35;;
38083;SDS011;23894;51.466;7.444;2023-04-09T07:30:43;28.48;;;22.63;;
38083;SDS011;23894;51.466;7.444;2023-04-09T07:32:45;28.92;;;22.67;;
38083;SDS011;23894;51.466;7.444;2023-04-09T07:34:49;27.58;;;21.98;;
38083;SDS011;23894;51.466;7.444;2023-04-09T07:36:51;26.55;;;21.80;;
38083;SDS011;23894;51.466;7.444;2023-04-09T07:38:53;26.45;;;20.73;;
38083;SDS011;23894;51.466;7.444;2023-04-09T07:40:57;26.25;;;21.58;;
38083;SDS011;23894;51.466;7.444;2023-04-09T07:43:01;27.20;;;21.25;;
38083;SDS011;23894;51.466;7.444;2023-04-09T07:45:02;25.47;;;20.77;;
38083;SDS011;23894;51.466;7.444;2023-04-09T07:47:06;26.37;;;20.10;;
38083;SDS011;23894;51.466;7.444;2023-04-09T07:49:07;26.45;;;21.00;;
38083;SDS011;23894;51.466;7.444;2023-04-09T07:51:08;24.67;;;19.42;;
38083;SDS011;23894;51.466;7.444;2023-04-09T07:53:12;24.83;;;19.35;;
38083;SDS011;23894;51.466;7.444;2023-04-09T07:55:15;24.88;;;19.05;;
38083;SDS011;23894;51.466;7.444;2023-04-09T07:57:20;25.20;;;18.67;;
38083;SDS011;23894;51.466;7.444;2023-04-09T07:59:22;23.57;;;18.10;;
38083;SDS011;23894;51.466;7.444;2023-04-09T08:01:25;24.23;;;19.15;;
38083;SDS011;23894;51.466;7.444;2023-04-09T08:03:28;24.58;;;18.45;;
38083;SDS011;23894;51.466;7.444;2023-04-09T08:05:30;21.42;;;16.35;;
38083;SDS011;23894;51.466;7.444;2023-04-09T08:07:32;22.92;;;17.70;;
38083;SDS011;23894;51.466;7.444;2023-04-09T08:09:39;20.83;;;16.65;;
38083;SDS011;23894;51.466;7.444;2023-04-09T08:11:40;22.13;;;16.95;;
38083;SDS011;23894;51.466;7.444;2023-04-09T08:13:44;21.85;;;17.40;;
38083;SDS011;23894;51.466;7.444;2023-04-09T08:15:46;22.60;;;16.80;;
38083;SDS011;23894;51.466;7.444;2023-04-09T08:17:48;22.75;;;18.20;;
38083;SDS011;23894;51.466;7.444;2023-04-09T08:19:52;23.83;;;19.10;;
38083;SDS011;23894;51.466;7.444;2023-04-09T08:21:55;24.15;;;19.75;;
38083;SDS011;23894;51.466;7.444;2023-04-09T08:23:59;24.42;;;20.00;;
38083;SDS011;23894;51.466;7.444;2023-04-09T08:26:04;24.48;;;19.35;;
38083;SDS011;23894;51.466;7.444;2023-04-09T08:28:05;23.88;;;19.20;;
38083;SDS011;23894;51.466;7.444;2023-04-09T08:30:07;25.90;;;19.95;;
38083;SDS011;23894;51.466;7.444;2023-04-09T08:32:08;24.73;;;19.33;;
38083;SDS011;23894;51.466;7.444;2023-04-09T08:34:11;22.77;;;18.10;;
38083;SDS011;23894;51.466;7.444;2023-04-09T08:36:15;23.30;;;18.17;;
38083;SDS011;23894;51.466;7.444;2023-04-09T08:38:17;22.35;;;18.27;;
38083;SDS011;23894;51.466;7.444;2023-04-09T08:40:20;21.90;;;17.52;;
38083;SDS011;23894;51.466;7.444;2023-04-09T08:42:24;21.50;;;17.30;;
38083;SDS011;23894;51.466;7.444;2023-04-09T08:44:27;21.93;;;18.17;;
38083;SDS011;23894;51.466;7.444;2023-04-09T08:46:28;19.83;;;16.17;;
38083;SDS011;23894;51.466;7.444;2023-04-09T08:48:30;19.88;;;15.90;;
38083;SDS011;23894;51.466;7.444;2023-04-09T08:50:34;20.13;;;16.17;;
38083;SDS011;23894;51.466;7.444;2023-04-09T08:52:38;20.40;;;16.50;;
38083;SDS011;23894;51.466;7.444;2023-04-09T08:54:41;22.38;;;18.20;;
38083;SDS011;23894;51.466;7.444;2023-04-09T08:56:45;22.13;;;18.07;;
38083;SDS011;23894;51.466;7.444;2023-04-09T08:58:47;24.35;;;18.50;;
38083;SDS011;23894;51.466;7.444;2023-04-09T09:00:51;23.25;;;18.55;;
38083;SDS011;23894;51.466;7.444;2023-04-09T09:03:08;21.83;;;17.45;;
38083;SDS011;23894;51.466;7.444;2023-04-09T09:05:34;21.38;;;17.20;;
38083;SDS011;23894;51.466;7.444;2023-04-09T09:07:35;21.83;;;17.73;;
38083;SDS011;23894;51.466;7.444;2023-04-09T09:11:57;17.08;;;13.30;;
38083;SDS011;23894;51.466;7.444;2023-04-09T09:13:59;15.07;;;12.20;;
38083;SDS011;23894;51.466;7.444;2023-04-09T09:16:11;17.52;;;13.25;;
38083;SDS011;23894;51.466;7.444;2023-04-09T09:18:13;16.67;;;13.63;;
38083;SDS011;23894;51.466;7.444;2023-04-09T09:20:19;17.45;;;13.80;;
38083;SDS011;23894;51.466;7.444;2023-04-09T09:22:22;17.30;;;13.30;;
38083;SDS011;23894;51.466;7.444;2023-04-09T09:24:25;17.60;;;13.50;;
38083;SDS011;23894;51.466;7.444;2023-04-09T09:26:28;16.95;;;13.63;;
38083;SDS011;23894;51.466;7.444;2023-04-09T09:28:33;18.38;;;14.40;;
38083;SDS011;23894;51.466;7.444;2023-04-09T09:30:35;14.95;;;11.25;;
38083;SDS011;23894;51.466;7.444;2023-04-09T09:32:52;14.35;;;11.13;;
38083;SDS011;23894;51.466;7.444;2023-04-09T09:35:03;13.75;;;10.05;;
38083;SDS011;23894;51.466;7.444;2023-04-09T09:39:41;13.57;;;10.50;;
38083;SDS011;23894;51.466;7.444;2023-04-09T09:41:46;13.57;;;10.52;;
38083;SDS011;23894;51.466;7.444;2023-04-09T09:43:53;12.73;;;9.95;;
38083;SDS011;23894;51.466;7.444;2023-04-09T09:45:54;14.65;;;10.90;;
38083;SDS011;23894;51.466;7.444;2023-04-09T09:47:57;15.43;;;12.53;;
38083;SDS011;23894;51.466;7.444;2023-04-09T09:50:00;16.00;;;11.82;;
38083;SDS011;23894;51.466;7.444;2023-04-09T09:52:02;14.32;;;11.60;;
38083;SDS011;23894;51.466;7.444;2023-04-09T09:54:10;15.88;;;12.20;;
38083;SDS011;23894;51.466;7.444;2023-04-09T09:56:20;15.57;;;12.85;;
38083;SDS011;23894;51.466;7.444;2023-04-09T09:58:25;17.98;;;12.57;;
38083;SDS011;23894;51.466;7.444;2023-04-09T10:00:30;15.77;;;12.65;;
38083;SDS011;23894;51.466;7.444;2023-04-09T10:02:36;14.15;;;11.60;;
38083;SDS011;23894;51.466;7.444;2023-04-09T10:04:42;16.88;;;12.77;;
38083;SDS011;23894;51.466;7.444;2023-04-09T10:06:48;15.30;;;12.07;;
38083;SDS011;23894;51.466;7.444;2023-04-09T10:08:50;15.20;;;12.52;;
38083;SDS011;23894;51.466;7.444;2023-04-09T10:10:54;16.10;;;13.02;;
38083;SDS011;23894;51.466;7.444;2023-04-09T10:12:57;17.65;;;13.52;;
38083;SDS011;23894;51.466;7.444;2023-04-09T10:15:00;15.77;;;12.50;;
38083;SDS011;23894;51.466;7.444;2023-04-09T10:17:05;15.93;;;12.77;;
38083;SDS011;23894;51.466;7.444;2023-04-09T10:19:09;16.40;;;12.85;;
38083;SDS011;23894;51.466;7.444;2023-04-09T10:25:35;17.40;;;13.10;;
38083;SDS011;23894;51.466;7.444;2023-04-09T10:27:38;14.80;;;12.30;;
38083;SDS011;23894;51.466;7.444;2023-04-09T10:29:47;15.13;;;11.82;;
38083;SDS011;23894;51.466;7.444;2023-04-09T10:32:05;14.15;;;11.77;;
38083;SDS011;23894;51.466;7.444;2023-04-09T10:34:06;14.73;;;11.88;;
38083;SDS011;23894;51.466;7.444;2023-04-09T10:36:09;15.63;;;12.02;;
38083;SDS011;23894;51.466;7.444;2023-04-09T10:38:12;14.70;;;11.82;;
38083;SDS011;23894;51.466;7.444;2023-04-09T10:40:19;14.63;;;11.55;;
38083;SDS011;23894;51.466;7.444;2023-04-09T10:42:22;14.57;;;11.23;;
38083;SDS011;23894;51.466;7.444;2023-04-09T10:44:26;15.07;;;11.40;;
38083;SDS011;23894;51.466;7.444;2023-04-09T10:46:35;15.85;;;11.60;;
38083;SDS011;23894;51.466;7.444;2023-04-09T10:48:36;12.88;;;10.48;;
38083;SDS011;23894;51.466;7.444;2023-04-09T10:50:40;13.30;;;10.63;;
38083;SDS011;23894;51.466;7.444;2023-04-09T10:52:43;12.98;;;10.48;;
38083;SDS011;23894;51.466;7.444;2023-04-09T10:54:47;12.73;;;10.07;;
38083;SDS011;23894;51.466;7.444;2023-04-09T10:57:09;13.50;;;10.95;;
38083;SDS011;23894;51.466;7.444;2023-04-09T10:59:15;12.95;;;10.75;;
38083;SDS011;23894;51.466;7.444;2023-04-09T11:01:20;13.32;;;11.02;;
38083;SDS011;23894;51.466;7.444;2023-04-09T11:03:27;13.20;;;10.20;;
38083;SDS011;23894;51.466;7.444;2023-04-09T11:05:34;12.45;;;9.93;;
38083;SDS011;23894;51.466;7.444;2023-04-09T11:07:46;13.87;;;11.57;;
38083;SDS011;23894;51.466;7.444;2023-04-09T11:09:48;13.10;;;10.65;;
38083;SDS011;23894;51.466;7.444;2023-04-09T11:11:52;13.40;;;10.65;;
38083;SDS011;23894;51.466;7.444;2023-04-09T11:13:57;12.82;;;10.50;;
38083;SDS011;23894;51.466;7.444;2023-04-09T11:16:00;12.52;;;9.80;;
38083;SDS011;23894;51.466;7.444;2023-04-09T11:18:06;11.95;;;9.07;;
38083;SDS011;23894;51.466;7.444;2023-04-09T11:20:16;11.00;;;9.25;;
38083;SDS011;23894;51.466;7.444;2023-04-09T11:22:21;10.80;;;9.10;;
38083;SDS011;23894;51.466;7.444;2023-04-09T11:24:25;10.82;;;8.95;;
38083;SDS011;23894;51.466;7.444;2023-04-09T11:26:35;11.77;;;9.13;;
38083;SDS011;23894;51.466;7.444;2023-04-09T11:28:36;11.63;;;9.18;;
38083;SDS011;23894;51.466;7.444;2023-04-09T11:30:42;12.17;;;10.13;;
38083;SDS011;23894;51.466;7.444;2023-04-09T11:32:46;12.35;;;9.73;;
38083;SDS011;23894;51.466;7.444;2023-04-09T11:34:51;12.15;;;9.80;;
38083;SDS011;23894;51.466;7.444;2023-04-09T11:36:54;11.63;;;9.40;;
38083;SDS011;23894;51.466;7.444;2023-04-09T11:38:58;11.95;;;9.57;;
38083;SDS011;23894;51.466;7.444;2023-04-09T11:41:05;11.93;;;9.63;;
38083;SDS011;23894;51.466;7.444;2023-04-09T11:43:13;12.25;;;9.05;;
38083;SDS011;23894;51.466;7.444;2023-04-09T11:45:21;11.25;;;9.18;;
38083;SDS011;23894;51.466;7.444;2023-04-09T11:47:23;12.02;;;9.93;;
38083;SDS011;23894;51.466;7.444;2023-04-09T11:49:35;11.30;;;9.23;;
38083;SDS011;23894;51.466;7.444;2023-04-09T11:51:39;12.00;;;9.48;;
38083;SDS011;23894;51.466;7.444;2023-04-09T11:53:40;12.02;;;9.65;;
38083;SDS011;23894;51.466;7.444;2023-04-09T11:55:41;11.70;;;9.82;;
38083;SDS011;23894;51.466;7.444;2023-04-09T11:57:46;11.70;;;9.30;;
38083;SDS011;23894;51.466;7.444;2023-04-09T11:59:49;11.98;;;9.10;;
38083;SDS011;23894;51.466;7.444;2023-04-09T12:01:50;15.30;;;11.85;;
38083;SDS011;23894;51.466;7.444;2023-04-09T12:03:52;11.85;;;9.38;;
38083;SDS011;23894;51.466;7.444;2023-04-09T12:05:54;11.35;;;8.60;;
38083;SDS011;23894;51.466;7.444;2023-04-09T12:08:01;10.70;;;8.73;;
38083;SDS011;23894;51.466;7.444;2023-04-09T12:10:04;11.43;;;9.05;;
38083;SDS011;23894;51.466;7.444;2023-04-09T12:12:07;11.32;;;9.05;;
38083;SDS011;23894;51.466;7.444;2023-04-09T12:14:13;11.77;;;8.93;;
38083;SDS011;23894;51.466;7.444;2023-04-09T12:16:17;10.77;;;8.80;;
38083;SDS011;23894;51.466;7.444;2023-04-09T12:18:21;11.05;;;8.73;;
38083;SDS011;23894;51.466;7.444;2023-04-09T12:20:30;11.88;;;9.75;;
38083;SDS011;23894;51.466;7.444;2023-04-09T12:22:33;14.20;;;9.20;;
38083;SDS011;23894;51.466;7.444;2023-04-09T12:24:39;10.90;;;8.57;;
38083;SDS011;23894;51.466;7.444;2023-04-09T12:26:42;11.57;;;9.50;;